sensor_id;sensor_type;location;lat;lon;timestamp;temperature;humidity
66026;SHT31;56312;55.976;37.136;2023-02-28T00:00:44;-7.64;83.77
66026;SHT31;56312;55.976;37.136;2023-02-28T00:05:50;-7.66;83.74
66026;SHT31;56312;55.976;37.136;2023-02-28T00:11:02;-7.67;83.68
66026;SHT31;56312;55.976;37.136;2023-02-28T00:16:11;-7.75;83.70
66026;SHT31;56312;55.976;37.136;2023-02-28T00:21:19;-7.82;83.64
66026;SHT31;56312;55.976;37.136;2023-02-28T00:26:26;-7.87;83.65
66026;SHT31;56312;55.976;37.136;2023-02-28T00:31:32;-7.84;83.69
66026;SHT31;56312;55.976;37.136;2023-02-28T00:36:38;-7.86;83.70
66026;SHT31;56312;55.976;37.136;2023-02-28T00:41:44;-7.93;83.63
66026;SHT31;56312;55.976;37.136;2023-02-28T00:46:51;-7.98;83.61
66026;SHT31;56312;55.976;37.136;2023-02-28T00:51:57;-8.03;83.61
66026;SHT31;56312;55.976;37.136;2023-02-28T00:57:03;-8.10;83.60
66026;SHT31;56312;55.976;37.136;2023-02-28T01:02:10;-8.21;83.59
66026;SHT31;56312;55.976;37.136;2023-02-28T01:07:16;-8.28;83.54
66026;SHT31;56312;55.976;37.136;2023-02-28T01:12:22;-8.39;83.54
66026;SHT31;56312;55.976;37.136;2023-02-28T01:17:28;-8.34;83.52
66026;SHT31;56312;55.976;37.136;2023-02-28T01:22:35;-8.35;83.52
66026;SHT31;56312;55.976;37.136;2023-02-28T01:27:41;-8.32;83.47
66026;SHT31;56312;55.976;37.136;2023-02-28T01:32:47;-8.35;83.48
66026;SHT31;56312;55.976;37.136;2023-02-28T01:37:54;-8.38;83.50
66026;SHT31;56312;55.976;37.136;2023-02-28T01:43:00;-8.38;83.50
66026;SHT31;56312;55.976;37.136;2023-02-28T01:48:08;-8.38;83.49
66026;SHT31;56312;55.976;37.136;2023-02-28T01:53:19;-8.36;83.50
66026;SHT31;56312;55.976;37.136;2023-02-28T01:58:27;-8.36;83.50
66026;SHT31;56312;55.976;37.136;2023-02-28T02:03:35;-8.41;83.46
66026;SHT31;56312;55.976;37.136;2023-02-28T02:08:42;-8.42;83.45
66026;SHT31;56312;55.976;37.136;2023-02-28T02:36:13;-8.43;83.43
66026;SHT31;56312;55.976;37.136;2023-02-28T02:46:33;-8.45;83.39
66026;SHT31;56312;55.976;37.136;2023-02-28T02:51:41;-8.48;83.33
66026;SHT31;56312;55.976;37.136;2023-02-28T02:56:49;-8.49;83.35
66026;SHT31;56312;55.976;37.136;2023-02-28T03:02:00;-8.49;83.37
66026;SHT31;56312;55.976;37.136;2023-02-28T03:07:07;-8.49;83.31
66026;SHT31;56312;55.976;37.136;2023-02-28T03:12:13;-8.49;83.30
66026;SHT31;56312;55.976;37.136;2023-02-28T03:22:54;-8.42;83.34
66026;SHT31;56312;55.976;37.136;2023-02-28T03:33:44;-8.45;83.25
66026;SHT31;56312;55.976;37.136;2023-02-28T03:39:07;-8.46;83.22
66026;SHT31;56312;55.976;37.136;2023-02-28T03:49:53;-8.49;83.25
66026;SHT31;56312;55.976;37.136;2023-02-28T03:55:05;-8.48;83.22
66026;SHT31;56312;55.976;37.136;2023-02-28T04:00:20;-8.42;83.18
66026;SHT31;56312;55.976;37.136;2023-02-28T04:05:27;-8.49;83.16
66026;SHT31;56312;55.976;37.136;2023-02-28T04:10:34;-8.49;83.16
66026;SHT31;56312;55.976;37.136;2023-02-28T04:15:40;-8.46;83.17
66026;SHT31;56312;55.976;37.136;2023-02-28T04:20:47;-8.46;83.13
66026;SHT31;56312;55.976;37.136;2023-02-28T04:25:55;-8.48;83.14
66026;SHT31;56312;55.976;37.136;2023-02-28T04:31:03;-8.46;83.12
66026;SHT31;56312;55.976;37.136;2023-02-28T04:36:10;-8.41;83.10
66026;SHT31;56312;55.976;37.136;2023-02-28T04:41:16;-8.43;83.12
66026;SHT31;56312;55.976;37.136;2023-02-28T04:46:23;-8.35;83.15
66026;SHT31;56312;55.976;37.136;2023-02-28T04:51:30;-8.34;83.07
66026;SHT31;56312;55.976;37.136;2023-02-28T04:56:36;-8.24;83.10
66026;SHT31;56312;55.976;37.136;2023-02-28T05:01:46;-8.13;83.08
66026;SHT31;56312;55.976;37.136;2023-02-28T05:06:52;-8.05;83.05
66026;SHT31;56312;55.976;37.136;2023-02-28T05:11:59;-7.97;83.08
66026;SHT31;56312;55.976;37.136;2023-02-28T05:17:05;-7.89;83.06
66026;SHT31;56312;55.976;37.136;2023-02-28T05:22:14;-7.76;83.12
66026;SHT31;56312;55.976;37.136;2023-02-28T05:27:22;-7.64;83.06
66026;SHT31;56312;55.976;37.136;2023-02-28T05:32:29;-7.60;83.02
66026;SHT31;56312;55.976;37.136;2023-02-28T05:37:35;-7.55;83.02
66026;SHT31;56312;55.976;37.136;2023-02-28T05:42:41;-7.40;83.03
66026;SHT31;56312;55.976;37.136;2023-02-28T05:47:48;-7.34;82.94
66026;SHT31;56312;55.976;37.136;2023-02-28T05:52:54;-7.36;82.92
66026;SHT31;56312;55.976;37.136;2023-02-28T05:58:00;-7.22;82.97
66026;SHT31;56312;55.976;37.136;2023-02-28T06:03:06;-7.11;83.00
66026;SHT31;56312;55.976;37.136;2023-02-28T06:08:13;-7.03;82.98
66026;SHT31;56312;55.976;37.136;2023-02-28T06:13:19;-6.93;82.99
66026;SHT31;56312;55.976;37.136;2023-02-28T06:18:25;-6.84;83.03
66026;SHT31;56312;55.976;37.136;2023-02-28T06:23:31;-6.76;83.05
66026;SHT31;56312;55.976;37.136;2023-02-28T06:28:38;-6.61;83.08
66026;SHT31;56312;55.976;37.136;2023-02-28T06:33:45;-6.52;83.15
66026;SHT31;56312;55.976;37.136;2023-02-28T06:38:51;-6.39;83.23
66026;SHT31;56312;55.976;37.136;2023-02-28T06:44:00;-6.26;83.28
66026;SHT31;56312;55.976;37.136;2023-02-28T06:49:07;-6.13;83.33
66026;SHT31;56312;55.976;37.136;2023-02-28T06:54:14;-6.13;83.36
66026;SHT31;56312;55.976;37.136;2023-02-28T06:59:21;-6.04;83.40
66026;SHT31;56312;55.976;37.136;2023-02-28T07:04:27;-5.97;83.48
66026;SHT31;56312;55.976;37.136;2023-02-28T07:09:33;-5.90;83.48
66026;SHT31;56312;55.976;37.136;2023-02-28T07:14:40;-5.75;83.61
66026;SHT31;56312;55.976;37.136;2023-02-28T07:19:46;-5.63;83.58
66026;SHT31;56312;55.976;37.136;2023-02-28T07:24:52;-5.63;83.59
66026;SHT31;56312;55.976;37.136;2023-02-28T07:29:59;-5.59;83.65
66026;SHT31;56312;55.976;37.136;2023-02-28T07:35:07;-5.59;83.66
66026;SHT31;56312;55.976;37.136;2023-02-28T07:40:14;-5.55;83.69
66026;SHT31;56312;55.976;37.136;2023-02-28T07:45:21;-5.48;83.72
66026;SHT31;56312;55.976;37.136;2023-02-28T07:50:27;-5.46;83.71
66026;SHT31;56312;55.976;37.136;2023-02-28T07:55:36;-5.46;83.72
66026;SHT31;56312;55.976;37.136;2023-02-28T08:00:42;-5.43;83.76
66026;SHT31;56312;55.976;37.136;2023-02-28T08:05:49;-5.39;83.81
66026;SHT31;56312;55.976;37.136;2023-02-28T08:11:01;-5.38;83.86
66026;SHT31;56312;55.976;37.136;2023-02-28T08:16:08;-5.29;83.89
66026;SHT31;56312;55.976;37.136;2023-02-28T08:21:14;-5.18;83.96
66026;SHT31;56312;55.976;37.136;2023-02-28T08:26:21;-5.05;84.00
66026;SHT31;56312;55.976;37.136;2023-02-28T08:31:27;-4.98;83.98
66026;SHT31;56312;55.976;37.136;2023-02-28T08:36:33;-4.96;83.95
66026;SHT31;56312;55.976;37.136;2023-02-28T08:41:40;-4.98;83.96
66026;SHT31;56312;55.976;37.136;2023-02-28T08:46:47;-5.01;83.96
66026;SHT31;56312;55.976;37.136;2023-02-28T08:51:54;-5.01;84.01
66026;SHT31;56312;55.976;37.136;2023-02-28T08:57:02;-4.98;84.04
66026;SHT31;56312;55.976;37.136;2023-02-28T09:02:09;-4.93;84.09
66026;SHT31;56312;55.976;37.136;2023-02-28T09:07:18;-4.93;84.06
66026;SHT31;56312;55.976;37.136;2023-02-28T09:12:25;-4.86;84.12
66026;SHT31;56312;55.976;37.136;2023-02-28T09:17:32;-4.83;84.10
66026;SHT31;56312;55.976;37.136;2023-02-28T09:22:38;-4.89;84.07
66026;SHT31;56312;55.976;37.136;2023-02-28T09:27:44;-4.94;84.11
66026;SHT31;56312;55.976;37.136;2023-02-28T09:32:51;-4.96;84.15
66026;SHT31;56312;55.976;37.136;2023-02-28T09:37:57;-4.86;84.15
66026;SHT31;56312;55.976;37.136;2023-02-28T09:43:04;-4.83;84.21
66026;SHT31;56312;55.976;37.136;2023-02-28T09:48:17;-4.73;84.23
66026;SHT31;56312;55.976;37.136;2023-02-28T09:53:31;-4.66;84.24
66026;SHT31;56312;55.976;37.136;2023-02-28T09:58:54;-4.58;84.28
66026;SHT31;56312;55.976;37.136;2023-02-28T10:09:54;-4.59;84.24
66026;SHT31;56312;55.976;37.136;2023-02-28T10:15:03;-4.63;84.29
66026;SHT31;56312;55.976;37.136;2023-02-28T10:20:12;-4.59;84.32
66026;SHT31;56312;55.976;37.136;2023-02-28T10:25:24;-4.55;84.35
66026;SHT31;56312;55.976;37.136;2023-02-28T10:30:31;-4.53;84.41
66026;SHT31;56312;55.976;37.136;2023-02-28T10:35:37;-4.51;84.43
66026;SHT31;56312;55.976;37.136;2023-02-28T10:40:44;-4.38;84.51
66026;SHT31;56312;55.976;37.136;2023-02-28T10:46:03;-4.24;84.55
66026;SHT31;56312;55.976;37.136;2023-02-28T10:51:18;-4.17;84.59
66026;SHT31;56312;55.976;37.136;2023-02-28T10:56:25;-4.13;84.62
66026;SHT31;56312;55.976;37.136;2023-02-28T11:01:41;-4.15;84.61
66026;SHT31;56312;55.976;37.136;2023-02-28T11:06:58;-4.17;84.68
66026;SHT31;56312;55.976;37.136;2023-02-28T11:12:07;-4.15;84.75
66026;SHT31;56312;55.976;37.136;2023-02-28T11:17:20;-4.05;84.83
66026;SHT31;56312;55.976;37.136;2023-02-28T11:22:31;-3.95;84.93
66026;SHT31;56312;55.976;37.136;2023-02-28T11:27:53;-3.89;84.96
66026;SHT31;56312;55.976;37.136;2023-02-28T11:33:01;-3.80;84.99
66026;SHT31;56312;55.976;37.136;2023-02-28T11:38:14;-3.79;85.00
66026;SHT31;56312;55.976;37.136;2023-02-28T12:10:27;-3.54;85.30
66026;SHT31;56312;55.976;37.136;2023-02-28T12:21:26;-3.48;85.37
66026;SHT31;56312;55.976;37.136;2023-02-28T12:26:41;-3.48;85.40
66026;SHT31;56312;55.976;37.136;2023-02-28T12:32:13;-3.41;85.43
66026;SHT31;56312;55.976;37.136;2023-02-28T12:38:18;-3.35;85.49
66026;SHT31;56312;55.976;37.136;2023-02-28T12:43:17;-3.32;85.50
66026;SHT31;56312;55.976;37.136;2023-02-28T12:48:31;-3.30;85.47
66026;SHT31;56312;55.976;37.136;2023-02-28T13:05:01;-3.27;85.59
66026;SHT31;56312;55.976;37.136;2023-02-28T13:10:12;-3.25;85.58
66026;SHT31;56312;55.976;37.136;2023-02-28T13:15:26;-3.25;85.61
66026;SHT31;56312;55.976;37.136;2023-02-28T13:20:36;-3.24;85.64
66026;SHT31;56312;55.976;37.136;2023-02-28T13:36:26;-3.08;85.69
66026;SHT31;56312;55.976;37.136;2023-02-28T13:41:43;-3.08;85.72
66026;SHT31;56312;55.976;37.136;2023-02-28T13:52:07;-2.97;85.76
66026;SHT31;56312;55.976;37.136;2023-02-28T14:07:58;-2.83;85.80
66026;SHT31;56312;55.976;37.136;2023-02-28T14:18:35;-2.70;85.85
66026;SHT31;56312;55.976;37.136;2023-02-28T14:34:52;-2.65;85.94
66026;SHT31;56312;55.976;37.136;2023-02-28T14:40:00;-2.63;85.95
66026;SHT31;56312;55.976;37.136;2023-02-28T14:45:18;-2.59;85.96
66026;SHT31;56312;55.976;37.136;2023-02-28T14:50:34;-2.53;85.98
66026;SHT31;56312;55.976;37.136;2023-02-28T14:55:45;-2.46;85.96
66026;SHT31;56312;55.976;37.136;2023-02-28T15:00:54;-2.45;86.02
66026;SHT31;56312;55.976;37.136;2023-02-28T15:06:16;-2.46;86.01
66026;SHT31;56312;55.976;37.136;2023-02-28T15:11:23;-2.35;86.06
66026;SHT31;56312;55.976;37.136;2023-02-28T15:16:36;-2.37;86.04
66026;SHT31;56312;55.976;37.136;2023-02-28T15:21:48;-2.28;86.05
66026;SHT31;56312;55.976;37.136;2023-02-28T15:26:58;-2.28;86.05
66026;SHT31;56312;55.976;37.136;2023-02-28T15:32:07;-2.28;86.06
66026;SHT31;56312;55.976;37.136;2023-02-28T15:42:38;-2.22;86.10
66026;SHT31;56312;55.976;37.136;2023-02-28T15:47:45;-2.22;86.09
66026;SHT31;56312;55.976;37.136;2023-02-28T15:52:53;-2.22;86.14
66026;SHT31;56312;55.976;37.136;2023-02-28T15:58:01;-2.21;86.16
66026;SHT31;56312;55.976;37.136;2023-02-28T16:03:24;-2.21;86.17
66026;SHT31;56312;55.976;37.136;2023-02-28T16:08:31;-2.20;86.21
66026;SHT31;56312;55.976;37.136;2023-02-28T16:13:37;-2.18;86.23
66026;SHT31;56312;55.976;37.136;2023-02-28T16:18:43;-2.22;86.20
66026;SHT31;56312;55.976;37.136;2023-02-28T16:23:50;-2.28;86.26
66026;SHT31;56312;55.976;37.136;2023-02-28T16:28:56;-2.38;86.24
66026;SHT31;56312;55.976;37.136;2023-02-28T16:34:03;-2.44;86.26
66026;SHT31;56312;55.976;37.136;2023-02-28T16:39:10;-2.48;86.23
66026;SHT31;56312;55.976;37.136;2023-02-28T16:44:35;-2.50;86.28
66026;SHT31;56312;55.976;37.136;2023-02-28T16:49:42;-2.58;86.23
66026;SHT31;56312;55.976;37.136;2023-02-28T16:54:49;-2.65;86.21
66026;SHT31;56312;55.976;37.136;2023-02-28T16:59:55;-2.68;86.26
66026;SHT31;56312;55.976;37.136;2023-02-28T17:05:01;-2.76;86.22
66026;SHT31;56312;55.976;37.136;2023-02-28T17:10:15;-2.73;86.27
66026;SHT31;56312;55.976;37.136;2023-02-28T17:15:22;-2.69;86.28
66026;SHT31;56312;55.976;37.136;2023-02-28T17:20:28;-2.60;86.34
66026;SHT31;56312;55.976;37.136;2023-02-28T17:25:34;-2.49;86.31
66026;SHT31;56312;55.976;37.136;2023-02-28T17:30:41;-2.50;86.27
66026;SHT31;56312;55.976;37.136;2023-02-28T17:35:52;-2.50;86.26
66026;SHT31;56312;55.976;37.136;2023-02-28T17:40:59;-2.55;86.22
66026;SHT31;56312;55.976;37.136;2023-02-28T17:46:06;-2.60;86.16
66026;SHT31;56312;55.976;37.136;2023-02-28T17:51:15;-2.63;86.09
66026;SHT31;56312;55.976;37.136;2023-02-28T17:56:24;-2.72;86.05
66026;SHT31;56312;55.976;37.136;2023-02-28T18:01:30;-2.73;85.96
66026;SHT31;56312;55.976;37.136;2023-02-28T18:06:39;-2.77;85.86
66026;SHT31;56312;55.976;37.136;2023-02-28T18:12:06;-2.80;85.76
66026;SHT31;56312;55.976;37.136;2023-02-28T18:17:13;-2.90;85.66
66026;SHT31;56312;55.976;37.136;2023-02-28T18:22:19;-2.90;85.55
66026;SHT31;56312;55.976;37.136;2023-02-28T18:27:26;-2.93;85.46
66026;SHT31;56312;55.976;37.136;2023-02-28T18:32:32;-2.93;85.34
66026;SHT31;56312;55.976;37.136;2023-02-28T18:37:39;-2.93;85.23
66026;SHT31;56312;55.976;37.136;2023-02-28T18:42:45;-2.96;85.07
66026;SHT31;56312;55.976;37.136;2023-02-28T18:47:51;-2.98;84.94
66026;SHT31;56312;55.976;37.136;2023-02-28T18:52:57;-3.01;84.80
66026;SHT31;56312;55.976;37.136;2023-02-28T18:58:04;-3.05;84.72
66026;SHT31;56312;55.976;37.136;2023-02-28T19:03:11;-3.07;84.61
66026;SHT31;56312;55.976;37.136;2023-02-28T19:08:17;-3.07;84.46
66026;SHT31;56312;55.976;37.136;2023-02-28T19:13:24;-3.07;84.29
66026;SHT31;56312;55.976;37.136;2023-02-28T19:18:30;-3.14;84.06
66026;SHT31;56312;55.976;37.136;2023-02-28T19:23:38;-3.27;83.97
66026;SHT31;56312;55.976;37.136;2023-02-28T19:28:45;-3.30;83.81
66026;SHT31;56312;55.976;37.136;2023-02-28T19:33:52;-3.36;83.67
66026;SHT31;56312;55.976;37.136;2023-02-28T19:38:58;-3.41;83.50
66026;SHT31;56312;55.976;37.136;2023-02-28T19:44:05;-3.49;83.38
66026;SHT31;56312;55.976;37.136;2023-02-28T19:49:11;-3.60;83.24
66026;SHT31;56312;55.976;37.136;2023-02-28T19:54:17;-3.69;83.10
66026;SHT31;56312;55.976;37.136;2023-02-28T19:59:24;-3.80;82.93
66026;SHT31;56312;55.976;37.136;2023-02-28T20:04:30;-3.89;82.89
66026;SHT31;56312;55.976;37.136;2023-02-28T20:09:36;-3.94;82.78
66026;SHT31;56312;55.976;37.136;2023-02-28T20:14:43;-4.04;82.65
66026;SHT31;56312;55.976;37.136;2023-02-28T20:19:49;-4.18;82.51
66026;SHT31;56312;55.976;37.136;2023-02-28T20:24:55;-4.25;82.33
66026;SHT31;56312;55.976;37.136;2023-02-28T20:30:03;-4.31;82.26
66026;SHT31;56312;55.976;37.136;2023-02-28T20:35:09;-4.33;82.09
66026;SHT31;56312;55.976;37.136;2023-02-28T20:40:16;-4.42;81.96
66026;SHT31;56312;55.976;37.136;2023-02-28T20:45:22;-4.48;81.93
66026;SHT31;56312;55.976;37.136;2023-02-28T20:50:29;-4.56;81.90
66026;SHT31;56312;55.976;37.136;2023-02-28T20:55:36;-4.59;81.82
66026;SHT31;56312;55.976;37.136;2023-02-28T21:00:42;-4.62;81.78
66026;SHT31;56312;55.976;37.136;2023-02-28T21:05:49;-4.70;81.69
66026;SHT31;56312;55.976;37.136;2023-02-28T21:10:55;-4.79;81.68
66026;SHT31;56312;55.976;37.136;2023-02-28T21:16:07;-4.84;81.63
66026;SHT31;56312;55.976;37.136;2023-02-28T21:21:16;-4.91;81.50
66026;SHT31;56312;55.976;37.136;2023-02-28T21:26:23;-4.93;81.51
66026;SHT31;56312;55.976;37.136;2023-02-28T21:31:31;-4.96;81.44
66026;SHT31;56312;55.976;37.136;2023-02-28T21:36:40;-5.01;81.39
66026;SHT31;56312;55.976;37.136;2023-02-28T21:41:47;-5.07;81.36
66026;SHT31;56312;55.976;37.136;2023-02-28T21:46:53;-5.08;81.26
66026;SHT31;56312;55.976;37.136;2023-02-28T21:52:01;-5.10;81.25
66026;SHT31;56312;55.976;37.136;2023-02-28T21:57:07;-5.15;81.17
66026;SHT31;56312;55.976;37.136;2023-02-28T22:02:14;-5.21;81.09
66026;SHT31;56312;55.976;37.136;2023-02-28T22:07:20;-5.25;81.08
66026;SHT31;56312;55.976;37.136;2023-02-28T22:12:29;-5.29;81.03
66026;SHT31;56312;55.976;37.136;2023-02-28T22:17:35;-5.34;80.97
66026;SHT31;56312;55.976;37.136;2023-02-28T22:22:41;-5.43;80.93
66026;SHT31;56312;55.976;37.136;2023-02-28T22:27:48;-5.46;80.89
66026;SHT31;56312;55.976;37.136;2023-02-28T22:32:54;-5.58;80.86
66026;SHT31;56312;55.976;37.136;2023-02-28T22:38:00;-5.65;80.84
66026;SHT31;56312;55.976;37.136;2023-02-28T22:43:07;-5.70;80.85
66026;SHT31;56312;55.976;37.136;2023-02-28T22:48:13;-5.77;80.77
66026;SHT31;56312;55.976;37.136;2023-02-28T22:53:20;-5.90;80.77
66026;SHT31;56312;55.976;37.136;2023-02-28T22:58:26;-5.98;80.76
66026;SHT31;56312;55.976;37.136;2023-02-28T23:03:33;-6.07;80.75
66026;SHT31;56312;55.976;37.136;2023-02-28T23:08:40;-6.08;80.79
66026;SHT31;56312;55.976;37.136;2023-02-28T23:13:48;-6.15;80.78
66026;SHT31;56312;55.976;37.136;2023-02-28T23:19:06;-6.18;80.75
66026;SHT31;56312;55.976;37.136;2023-02-28T23:24:15;-6.25;80.72
66026;SHT31;56312;55.976;37.136;2023-02-28T23:29:22;-6.34;80.69
66026;SHT31;56312;55.976;37.136;2023-02-28T23:34:28;-6.35;80.68
66026;SHT31;56312;55.976;37.136;2023-02-28T23:39:37;-6.38;80.65
66026;SHT31;56312;55.976;37.136;2023-02-28T23:44:43;-6.35;80.66
66026;SHT31;56312;55.976;37.136;2023-02-28T23:49:50;-6.39;80.69
66026;SHT31;56312;55.976;37.136;2023-02-28T23:54:56;-6.41;80.59
